createdAt,value
2018-04-30T00:00:35.317Z,74.50
2018-04-30T00:03:02.846Z,74.60
2018-04-30T00:05:30.355Z,74.70
2018-04-30T00:07:57.866Z,75.50
2018-04-30T00:10:25.555Z,75.90
2018-04-30T00:12:53.060Z,76.30
2018-04-30T00:15:20.565Z,76.60
2018-04-30T00:17:48.105Z,76.10
2018-04-30T00:20:15.616Z,77.20
2018-04-30T00:22:43.140Z,77.10
2018-04-30T00:25:10.644Z,77.00
2018-04-30T00:27:38.155Z,77.40
2018-04-30T00:30:05.676Z,77.80
2018-04-30T00:32:33.981Z,78.90
2018-04-30T00:35:01.502Z,78.90
2018-04-30T00:37:29.085Z,79.30
2018-04-30T00:39:57.397Z,80.00
2018-04-30T00:42:24.936Z,79.80
2018-04-30T00:44:52.446Z,79.90
2018-04-30T00:47:19.969Z,80.20
2018-04-30T00:49:47.490Z,80.10
2018-04-30T00:52:15.105Z,80.70
2018-04-30T00:54:54.440Z,81.90
2018-04-30T00:57:21.975Z,82.60
2018-04-30T00:59:49.501Z,83.30
2018-04-30T01:02:17.017Z,83.60
2018-04-30T01:04:44.549Z,84.30
2018-04-30T01:07:12.090Z,84.40
2018-04-30T01:09:39.660Z,85.50
2018-04-30T01:12:07.960Z,87.80
2018-04-30T01:14:35.476Z,87.80
2018-04-30T01:17:03.022Z,88.90
2018-04-30T01:19:30.534Z,90.30
2018-04-30T01:21:58.036Z,91.00
2018-04-30T01:24:25.575Z,91.50
2018-04-30T01:26:53.085Z,92.10
2018-04-30T01:29:20.625Z,92.70
2018-04-30T01:31:48.143Z,92.90
2018-04-30T01:34:15.660Z,93.20
2018-04-30T01:36:43.195Z,93.80
2018-04-30T01:39:10.720Z,94.60
2018-04-30T01:41:38.232Z,95.50
2018-04-30T01:44:05.756Z,96.00
2018-04-30T01:46:33.292Z,96.30
2018-04-30T01:49:00.836Z,96.80
2018-04-30T01:51:28.415Z,97.70
2018-04-30T01:53:55.941Z,98.20
2018-04-30T01:56:23.487Z,98.40
2018-04-30T01:58:51.783Z,99.40
2018-04-30T02:01:20.057Z,99.90
2018-04-30T02:03:48.330Z,99.90
2018-04-30T02:06:15.885Z,99.90
2018-04-30T02:08:44.169Z,99.90
2018-04-30T02:11:11.701Z,99.90
2018-04-30T02:13:39.241Z,99.90
2018-04-30T02:16:06.775Z,99.90
2018-04-30T02:18:34.324Z,99.90
2018-04-30T02:21:01.867Z,99.90
2018-04-30T02:23:30.147Z,99.90
2018-04-30T02:25:58.411Z,99.90
2018-04-30T02:28:25.942Z,99.90
2018-04-30T02:30:53.454Z,99.90
2018-04-30T02:33:20.973Z,99.90
2018-04-30T02:35:48.507Z,99.90
2018-04-30T02:38:16.042Z,99.90
2018-04-30T02:40:43.589Z,99.90
2018-04-30T02:43:11.114Z,99.90
2018-04-30T02:45:38.644Z,99.90
2018-04-30T02:48:06.172Z,99.90
2018-04-30T02:50:33.699Z,99.90
2018-04-30T02:53:01.217Z,99.90
2018-04-30T02:55:28.751Z,99.90
2018-04-30T02:57:56.349Z,99.90
2018-04-30T03:00:23.861Z,99.90
2018-04-30T03:02:51.398Z,99.90
2018-04-30T03:05:18.933Z,99.90
2018-04-30T03:07:46.470Z,99.90
2018-04-30T03:10:13.990Z,99.90
2018-04-30T03:12:42.275Z,99.90
2018-04-30T03:15:10.541Z,99.90
2018-04-30T03:17:38.057Z,99.90
2018-04-30T03:20:05.582Z,99.90
2018-04-30T03:22:33.116Z,99.90
2018-04-30T03:25:00.642Z,99.90
2018-04-30T03:27:28.167Z,99.90
2018-04-30T03:29:55.678Z,99.90
2018-04-30T03:32:23.220Z,99.90
2018-04-30T03:34:50.737Z,99.90
2018-04-30T03:37:18.247Z,99.90
2018-04-30T03:39:45.776Z,99.90
2018-04-30T03:42:13.308Z,99.90
2018-04-30T03:44:40.836Z,99.90
2018-04-30T03:47:08.361Z,99.90
2018-04-30T03:49:35.919Z,99.90
2018-04-30T03:52:03.434Z,99.90
2018-04-30T03:54:30.971Z,99.90
2018-04-30T03:56:58.517Z,99.90
2018-04-30T03:59:26.040Z,99.90
2018-04-30T04:02:05.325Z,99.90
2018-04-30T04:04:44.698Z,99.90
2018-04-30T04:07:13.001Z,99.90
2018-04-30T04:09:40.524Z,99.90
2018-04-30T04:12:08.077Z,99.90
2018-04-30T04:14:35.596Z,99.90
2018-04-30T04:17:03.125Z,99.90
2018-04-30T04:19:30.681Z,99.90
2018-04-30T04:21:58.950Z,99.90
2018-04-30T04:24:27.323Z,99.90
2018-04-30T04:26:54.837Z,99.90
2018-04-30T04:29:22.341Z,99.90
2018-04-30T04:31:50.625Z,99.90
2018-04-30T04:34:18.894Z,99.90
2018-04-30T04:36:47.182Z,99.90
2018-04-30T04:39:15.463Z,99.90
2018-04-30T04:41:43.064Z,99.90
2018-04-30T04:44:10.526Z,99.90
2018-04-30T04:46:38.077Z,99.90
2018-04-30T04:49:05.582Z,99.90
2018-04-30T04:51:33.115Z,99.90
2018-04-30T04:54:00.641Z,99.90
2018-04-30T04:56:28.170Z,99.90
2018-04-30T04:58:55.681Z,99.90
2018-04-30T05:01:23.217Z,99.90
2018-04-30T05:03:50.760Z,99.90
2018-04-30T05:06:18.267Z,99.90
2018-04-30T05:08:45.791Z,99.90
2018-04-30T05:11:13.296Z,99.90
2018-04-30T05:13:40.806Z,99.90
2018-04-30T05:16:08.321Z,99.90
2018-04-30T05:18:35.845Z,99.90
2018-04-30T05:21:03.353Z,99.90
2018-04-30T05:23:30.885Z,99.90
2018-04-30T05:25:59.197Z,99.90
2018-04-30T05:28:27.495Z,99.90
2018-04-30T05:30:55.014Z,99.90
2018-04-30T05:33:22.537Z,99.90
2018-04-30T05:35:50.057Z,99.90
2018-04-30T05:38:18.353Z,99.90
2018-04-30T05:40:45.883Z,99.90
2018-04-30T05:43:13.414Z,99.90
2018-04-30T05:45:41.808Z,99.90
2018-04-30T05:48:09.439Z,99.90
2018-04-30T05:50:36.970Z,99.90
2018-04-30T05:53:04.505Z,99.90
2018-04-30T05:55:32.025Z,99.90
2018-04-30T05:57:59.566Z,99.90
2018-04-30T06:00:27.126Z,99.90
2018-04-30T06:02:55.412Z,99.90
2018-04-30T06:05:22.922Z,99.90
2018-04-30T06:07:50.451Z,99.90
2018-04-30T06:10:17.970Z,99.90
2018-04-30T06:12:45.506Z,99.90
2018-04-30T06:15:13.106Z,99.90
2018-04-30T06:17:40.636Z,99.90
2018-04-30T06:20:08.154Z,99.90
2018-04-30T06:22:35.673Z,99.90
2018-04-30T06:25:03.196Z,99.90
2018-04-30T06:27:30.726Z,99.90
2018-04-30T06:29:58.261Z,99.90
2018-04-30T06:32:25.776Z,99.90
2018-04-30T06:34:53.311Z,99.90
2018-04-30T06:37:20.829Z,99.90
2018-04-30T06:39:48.385Z,99.90
2018-04-30T06:42:15.926Z,99.90
2018-04-30T06:44:44.221Z,99.90
2018-04-30T06:47:11.741Z,99.90
2018-04-30T06:49:39.254Z,99.90
2018-04-30T06:52:06.775Z,99.90
2018-04-30T06:54:35.097Z,99.90
2018-04-30T06:57:02.619Z,99.90
2018-04-30T06:59:30.141Z,99.90
2018-04-30T07:01:57.691Z,99.90
2018-04-30T07:04:25.226Z,99.90
2018-04-30T07:06:52.758Z,99.90
2018-04-30T07:09:21.182Z,99.90
2018-04-30T07:11:48.613Z,99.90
2018-04-30T07:14:16.148Z,99.90
2018-04-30T07:16:44.423Z,99.90
2018-04-30T07:19:12.697Z,99.90
2018-04-30T07:21:40.209Z,99.90
2018-04-30T07:24:07.772Z,99.90
2018-04-30T07:26:35.297Z,99.90
2018-04-30T07:29:03.598Z,99.90
2018-04-30T07:31:31.134Z,99.90
2018-04-30T07:33:59.543Z,99.90
2018-04-30T07:36:27.068Z,99.90
2018-04-30T07:38:55.144Z,99.60
2018-04-30T07:41:22.673Z,99.50
2018-04-30T07:43:50.204Z,99.50
2018-04-30T07:46:18.597Z,99.60
2018-04-30T07:48:46.099Z,99.30
2018-04-30T07:51:14.413Z,99.40
2018-04-30T07:53:41.999Z,99.30
2018-04-30T07:56:09.510Z,99.20
2018-04-30T07:58:37.035Z,99.50
2018-04-30T08:01:05.342Z,99.30
2018-04-30T08:03:32.882Z,99.30
2018-04-30T08:06:01.163Z,99.10
2018-04-30T08:08:29.446Z,98.90
2018-04-30T08:10:57.729Z,99.00
2018-04-30T08:13:26.034Z,98.90
2018-04-30T08:15:53.561Z,98.90
2018-04-30T08:18:21.082Z,99.40
2018-04-30T08:20:48.626Z,99.20
2018-04-30T08:23:16.170Z,99.40
2018-04-30T08:25:43.702Z,98.90
2018-04-30T08:28:12.000Z,98.10
2018-04-30T08:30:39.509Z,98.10
2018-04-30T08:33:07.027Z,97.60
2018-04-30T08:35:34.545Z,97.80
2018-04-30T08:38:02.870Z,97.30
2018-04-30T08:40:30.396Z,97.20
2018-04-30T08:42:58.655Z,96.60
2018-04-30T08:45:26.198Z,96.60
2018-04-30T08:47:53.703Z,96.40
2018-04-30T08:50:21.226Z,96.30
2018-04-30T08:52:48.733Z,96.00
2018-04-30T08:55:16.256Z,95.80
2018-04-30T08:57:44.538Z,95.20
2018-04-30T09:00:12.811Z,95.00
2018-04-30T09:02:41.145Z,94.50
2018-04-30T09:05:08.671Z,94.40
2018-04-30T09:07:36.184Z,94.30
2018-04-30T09:10:03.712Z,94.10
2018-04-30T09:12:31.223Z,93.00
2018-04-30T09:14:59.624Z,91.60
2018-04-30T09:17:27.052Z,91.60
2018-04-30T09:19:54.574Z,91.30
2018-04-30T09:22:22.134Z,90.60
2018-04-30T09:24:49.646Z,90.90
2018-04-30T09:27:17.989Z,90.10
2018-04-30T09:29:45.494Z,90.10
2018-04-30T09:32:13.057Z,90.20
2018-04-30T09:34:41.337Z,90.00
2018-04-30T09:37:09.613Z,88.60
2018-04-30T09:39:37.888Z,86.80
2018-04-30T09:42:06.177Z,85.40
2018-04-30T09:44:33.688Z,85.40
2018-04-30T09:47:01.185Z,82.40
2018-04-30T09:49:28.720Z,81.40
2018-04-30T09:51:56.251Z,80.50
2018-04-30T09:54:23.809Z,80.90
2018-04-30T09:56:51.340Z,81.40
2018-04-30T09:59:18.865Z,80.20
2018-04-30T10:01:46.409Z,80.00
2018-04-30T10:04:14.027Z,80.90
2018-04-30T10:06:41.545Z,81.30
2018-04-30T10:09:10.198Z,82.40
2018-04-30T10:11:37.717Z,81.70
2018-04-30T10:14:05.226Z,81.00
2018-04-30T10:16:32.791Z,82.00
2018-04-30T10:19:00.306Z,84.30
2018-04-30T10:21:27.843Z,86.80
2018-04-30T10:23:55.398Z,89.00
2018-04-30T10:26:22.921Z,90.20
2018-04-30T10:28:50.485Z,90.40
2018-04-30T10:31:18.034Z,90.10
2018-04-30T10:33:45.546Z,90.10
2018-04-30T10:36:13.822Z,90.20
2018-04-30T10:38:41.338Z,90.20
2018-04-30T10:41:08.885Z,90.20
2018-04-30T10:43:36.436Z,89.30
2018-04-30T10:46:04.104Z,89.40
2018-04-30T10:48:31.622Z,90.10
2018-04-30T10:50:59.975Z,90.20
2018-04-30T10:53:27.516Z,90.10
2018-04-30T10:55:55.054Z,90.30
2018-04-30T10:58:22.565Z,90.20
2018-04-30T11:00:50.083Z,90.10
2018-04-30T11:03:17.616Z,90.00
2018-04-30T11:05:45.131Z,89.30
2018-04-30T11:08:12.959Z,88.80
2018-04-30T11:10:40.481Z,87.80
2018-04-30T11:13:08.082Z,87.00
2018-04-30T11:15:35.612Z,86.00
2018-04-30T11:18:03.122Z,86.70
2018-04-30T11:20:31.401Z,88.00
2018-04-30T11:22:58.914Z,88.00
2018-04-30T11:25:26.417Z,88.60
2018-04-30T11:27:53.953Z,89.20
2018-04-30T11:30:21.496Z,90.00
2018-04-30T11:32:49.089Z,89.90
2018-04-30T11:35:16.700Z,90.00
2018-04-30T11:37:44.181Z,89.30
2018-04-30T11:40:11.761Z,89.20
2018-04-30T11:42:39.307Z,89.50
2018-04-30T11:45:06.863Z,89.20
2018-04-30T11:47:34.424Z,89.80
2018-04-30T11:50:01.973Z,89.20
2018-04-30T11:52:29.502Z,89.40
2018-04-30T11:54:57.817Z,88.50
2018-04-30T11:57:25.349Z,88.40
2018-04-30T11:59:53.641Z,86.30
2018-04-30T12:02:21.232Z,86.30
2018-04-30T12:04:48.737Z,84.90
2018-04-30T12:07:17.067Z,83.20
2018-04-30T12:09:44.617Z,84.00
2018-04-30T12:12:12.142Z,83.40
2018-04-30T12:14:40.437Z,81.80
2018-04-30T12:17:07.979Z,81.60
2018-04-30T12:19:35.481Z,77.60
2018-04-30T12:22:03.148Z,76.30
2018-04-30T12:24:30.602Z,83.40
2018-04-30T12:26:58.170Z,83.10
2018-04-30T12:29:25.715Z,85.80
2018-04-30T12:31:53.278Z,82.50
2018-04-30T12:34:20.865Z,80.70
2018-04-30T12:36:50.036Z,81.50
2018-04-30T12:39:17.569Z,83.50
2018-04-30T12:41:45.093Z,78.90
2018-04-30T12:44:12.673Z,79.10
2018-04-30T12:46:40.966Z,67.90
2018-04-30T12:49:08.515Z,67.90
2018-04-30T12:51:36.825Z,63.60
2018-04-30T12:54:04.352Z,63.40
2018-04-30T12:56:31.887Z,60.50
2018-04-30T12:58:59.429Z,56.10
2018-04-30T13:01:26.990Z,53.60
2018-04-30T13:03:55.308Z,54.90
2018-04-30T13:06:23.617Z,56.50
2018-04-30T13:08:51.201Z,56.40
2018-04-30T13:11:18.741Z,54.20
2018-04-30T13:13:46.291Z,55.20
2018-04-30T13:16:13.829Z,56.90
2018-04-30T13:18:41.351Z,58.00
2018-04-30T13:21:08.880Z,58.90
2018-04-30T13:23:36.388Z,59.10
2018-04-30T13:26:03.880Z,59.20
2018-04-30T13:28:31.521Z,59.60
2018-04-30T13:30:58.981Z,58.90
2018-04-30T13:33:27.275Z,59.00
2018-04-30T13:36:01.352Z,59.30
2018-04-30T13:38:28.911Z,59.30
2018-04-30T13:40:56.422Z,58.60
2018-04-30T13:43:23.981Z,58.20
2018-04-30T13:45:51.532Z,58.10
2018-04-30T13:48:19.828Z,56.40
2018-04-30T13:50:47.349Z,56.40
2018-04-30T13:53:14.870Z,56.00
2018-04-30T13:55:43.168Z,57.40
2018-04-30T13:58:10.669Z,57.40
2018-04-30T14:00:38.192Z,58.40
2018-04-30T14:03:05.707Z,58.30
2018-04-30T14:05:33.243Z,57.80
2018-04-30T14:08:00.759Z,58.10
2018-04-30T14:10:28.304Z,57.60
2018-04-30T14:12:55.821Z,57.30
2018-04-30T14:15:23.356Z,57.10
2018-04-30T14:17:50.893Z,57.20
2018-04-30T14:20:18.422Z,56.60
2018-04-30T14:22:45.971Z,55.70
2018-04-30T14:25:13.528Z,56.10
2018-04-30T14:27:41.034Z,55.60
2018-04-30T14:30:08.565Z,55.70
2018-04-30T14:32:36.098Z,55.90
2018-04-30T14:35:03.615Z,56.00
2018-04-30T14:37:31.152Z,56.10
2018-04-30T14:39:58.656Z,55.70
2018-04-30T14:42:26.235Z,54.50
2018-04-30T14:44:53.860Z,53.40
2018-04-30T14:47:21.363Z,52.40
2018-04-30T14:49:48.894Z,52.10
2018-04-30T14:52:16.395Z,52.00
2018-04-30T14:54:43.940Z,52.30
2018-04-30T14:57:11.726Z,52.90
2018-04-30T14:59:39.358Z,52.20
2018-04-30T15:02:06.890Z,52.40
2018-04-30T15:04:34.441Z,52.20
2018-04-30T15:07:01.969Z,51.50
2018-04-30T15:09:29.482Z,52.20
2018-04-30T15:11:57.038Z,51.40
2018-04-30T15:14:25.356Z,50.80
2018-04-30T15:16:52.866Z,50.80
2018-04-30T15:19:20.427Z,50.20
2018-04-30T15:21:47.937Z,50.30
2018-04-30T15:24:15.458Z,50.20
2018-04-30T15:26:43.023Z,50.00
2018-04-30T15:29:11.330Z,50.00
2018-04-30T15:31:38.858Z,50.00
2018-04-30T15:34:06.387Z,48.90
2018-04-30T15:36:33.984Z,48.10
2018-04-30T15:39:01.564Z,47.60
2018-04-30T15:41:29.329Z,48.50
2018-04-30T15:43:56.839Z,49.80
2018-04-30T15:46:24.415Z,50.70
2018-04-30T15:48:51.980Z,50.00
2018-04-30T15:51:20.265Z,48.90
2018-04-30T15:53:48.557Z,47.70
2018-04-30T15:56:16.834Z,48.40
2018-04-30T15:58:45.112Z,47.30
2018-04-30T16:01:12.618Z,47.10
2018-04-30T16:03:40.163Z,47.20
2018-04-30T16:06:07.744Z,47.50
2018-04-30T16:08:35.317Z,47.00
2018-04-30T16:11:02.844Z,46.30
2018-04-30T16:13:30.351Z,46.20
2018-04-30T16:15:57.859Z,46.00
2018-04-30T16:18:26.183Z,46.30
2018-04-30T16:20:53.762Z,46.50
2018-04-30T16:23:21.265Z,46.00
2018-04-30T16:25:48.795Z,46.40
2018-04-30T16:28:16.302Z,47.20
2018-04-30T16:30:43.856Z,47.50
2018-04-30T16:33:11.382Z,47.20
2018-04-30T16:35:38.881Z,46.90
2018-04-30T16:38:06.431Z,47.10
2018-04-30T16:40:33.962Z,47.10
2018-04-30T16:43:01.487Z,47.30
2018-04-30T16:45:29.014Z,47.70
2018-04-30T16:47:57.330Z,46.10
2018-04-30T16:50:25.631Z,46.00
2018-04-30T16:52:53.172Z,46.00
2018-04-30T16:55:21.458Z,46.10
2018-04-30T16:57:48.988Z,46.70
2018-04-30T17:00:17.300Z,45.20
2018-04-30T17:02:44.841Z,45.20
2018-04-30T17:05:12.407Z,44.70
2018-04-30T17:07:40.686Z,45.60
2018-04-30T17:10:08.204Z,45.60
2018-04-30T17:12:35.737Z,46.10
2018-04-30T17:15:03.232Z,47.00
2018-04-30T17:17:30.775Z,46.60
2018-04-30T17:19:58.343Z,46.80
2018-04-30T17:22:25.852Z,46.90
2018-04-30T17:24:53.379Z,47.40
2018-04-30T17:27:20.893Z,47.60
2018-04-30T17:29:48.395Z,47.80
2018-04-30T17:32:16.680Z,48.80
2018-04-30T17:34:44.189Z,48.20
2018-04-30T17:37:11.807Z,48.10
2018-04-30T17:39:40.128Z,48.40
2018-04-30T17:42:07.630Z,48.40
2018-04-30T17:44:35.178Z,48.10
2018-04-30T17:47:02.710Z,48.20
2018-04-30T17:49:30.289Z,48.50
2018-04-30T17:51:57.824Z,48.30
2018-04-30T17:54:25.350Z,48.70
2018-04-30T17:56:52.871Z,48.00
2018-04-30T17:59:20.383Z,48.20
2018-04-30T18:01:47.892Z,48.30
2018-04-30T18:04:15.414Z,48.60
2018-04-30T18:06:43.000Z,48.00
2018-04-30T18:09:10.505Z,48.30
2018-04-30T18:11:38.063Z,48.20
2018-04-30T18:14:05.569Z,48.10
2018-04-30T18:16:33.077Z,48.30
2018-04-30T18:19:00.605Z,48.20
2018-04-30T18:21:28.118Z,48.60
2018-04-30T18:23:55.705Z,48.80
2018-04-30T18:26:23.215Z,48.90
2018-04-30T18:28:51.506Z,48.50
2018-04-30T18:31:19.779Z,48.90
2018-04-30T18:33:48.092Z,48.70
2018-04-30T18:36:15.652Z,48.60
2018-04-30T18:38:43.193Z,49.20
2018-04-30T18:41:11.444Z,49.20
2018-04-30T18:43:39.742Z,49.50
2018-04-30T18:46:07.256Z,49.40
2018-04-30T18:48:34.799Z,49.20
2018-04-30T18:51:02.427Z,49.10
2018-04-30T18:53:30.753Z,49.80
2018-04-30T18:55:58.281Z,49.80
2018-04-30T18:58:26.995Z,50.20
2018-04-30T19:00:54.497Z,50.60
2018-04-30T19:03:22.045Z,51.10
2018-04-30T19:05:50.368Z,51.40
2018-04-30T19:08:17.878Z,51.30
2018-04-30T19:10:46.156Z,51.70
2018-04-30T19:13:13.703Z,51.70
2018-04-30T19:15:41.254Z,51.90
2018-04-30T19:18:08.833Z,51.60
2018-04-30T19:20:37.132Z,52.20
2018-04-30T19:23:05.407Z,52.50
2018-04-30T19:25:32.942Z,52.50
2018-04-30T19:28:00.477Z,51.70
2018-04-30T19:30:27.990Z,52.00
2018-04-30T19:32:56.325Z,52.60
2018-04-30T19:35:23.855Z,52.60
2018-04-30T19:37:51.365Z,53.10
2018-04-30T19:40:18.917Z,52.80
2018-04-30T19:42:46.636Z,53.30
2018-04-30T19:45:14.247Z,54.10
2018-04-30T19:47:41.769Z,54.60
2018-04-30T19:50:09.304Z,54.60
2018-04-30T19:52:36.828Z,54.20
2018-04-30T19:55:04.354Z,54.40
2018-04-30T19:57:31.877Z,55.20
2018-04-30T19:59:59.396Z,55.30
2018-04-30T20:02:26.926Z,55.60
2018-04-30T20:04:54.429Z,55.60
2018-04-30T20:07:21.970Z,55.10
2018-04-30T20:09:49.509Z,55.50
2018-04-30T20:12:17.115Z,55.70
2018-04-30T20:14:44.636Z,55.80
2018-04-30T20:17:12.177Z,55.30
2018-04-30T20:19:39.703Z,55.50
2018-04-30T20:22:08.012Z,56.00
2018-04-30T20:24:36.149Z,56.00
2018-04-30T20:27:04.451Z,56.40
2018-04-30T20:29:32.025Z,56.40
2018-04-30T20:31:59.574Z,56.60
2018-04-30T20:34:27.114Z,56.80
2018-04-30T20:36:54.635Z,56.30
2018-04-30T20:39:22.151Z,56.60
2018-04-30T20:41:49.678Z,57.10
2018-04-30T20:44:17.273Z,57.20
2018-04-30T20:46:44.774Z,57.30
2018-04-30T20:49:12.357Z,57.10
2018-04-30T20:51:39.913Z,58.10
2018-04-30T20:54:07.436Z,58.70
2018-04-30T20:56:35.043Z,59.40
2018-04-30T20:59:03.368Z,59.00
2018-04-30T21:01:30.893Z,59.00
2018-04-30T21:03:59.157Z,59.10
2018-04-30T21:06:27.461Z,59.60
2018-04-30T21:09:07.670Z,59.70
2018-04-30T21:11:35.206Z,59.70
2018-04-30T21:14:02.822Z,59.90
2018-04-30T21:16:30.357Z,60.40
2018-04-30T21:18:57.948Z,60.50
2018-04-30T21:21:25.475Z,60.60
2018-04-30T21:23:52.987Z,61.40
2018-04-30T21:26:20.516Z,62.30
2018-04-30T21:28:48.031Z,62.70
2018-04-30T21:31:15.621Z,62.00
2018-04-30T21:33:43.146Z,61.70
2018-04-30T21:36:10.655Z,61.10
2018-04-30T21:38:38.955Z,61.30
2018-04-30T21:41:06.469Z,61.30
2018-04-30T21:43:34.773Z,60.30
2018-04-30T21:46:02.300Z,59.70
2018-04-30T21:48:29.829Z,59.20
2018-04-30T21:50:57.357Z,59.40
2018-04-30T21:53:24.910Z,59.50
2018-04-30T21:55:53.247Z,59.60
2018-04-30T21:58:20.786Z,59.50
2018-04-30T22:00:48.316Z,59.90
2018-04-30T22:03:16.598Z,60.70
2018-04-30T22:05:44.871Z,61.30
2018-04-30T22:08:13.274Z,61.60
2018-04-30T22:10:40.793Z,61.60
2018-04-30T22:13:09.077Z,63.30
2018-04-30T22:15:37.367Z,62.50
2018-04-30T22:18:05.659Z,62.80
2018-04-30T22:20:33.188Z,62.80
2018-04-30T22:23:00.703Z,62.50
2018-04-30T22:25:28.209Z,62.70
2018-04-30T22:27:56.484Z,62.60
2018-04-30T22:30:24.761Z,62.30
2018-04-30T22:32:53.091Z,62.40
2018-04-30T22:35:20.596Z,62.40
2018-04-30T22:37:48.164Z,62.20
2018-04-30T22:40:15.767Z,61.90
2018-04-30T22:42:43.428Z,62.30
2018-04-30T22:45:10.960Z,62.30
2018-04-30T22:47:38.470Z,62.30
2018-04-30T22:50:06.014Z,63.60
2018-04-30T22:52:33.548Z,63.90
2018-04-30T22:55:01.073Z,62.60
2018-04-30T22:57:28.605Z,63.10
2018-04-30T22:59:56.112Z,63.30
2018-04-30T23:02:24.389Z,63.30
2018-04-30T23:04:52.736Z,63.20
2018-04-30T23:07:20.365Z,63.20
2018-04-30T23:09:48.591Z,64.00
2018-04-30T23:12:16.861Z,64.00
2018-04-30T23:14:44.391Z,64.00
2018-04-30T23:17:11.901Z,64.80
2018-04-30T23:19:39.454Z,64.90
2018-04-30T23:22:07.729Z,66.10
2018-04-30T23:24:36.062Z,65.90
2018-04-30T23:27:03.563Z,65.90
2018-04-30T23:29:31.833Z,68.10
2018-04-30T23:31:59.326Z,68.10
2018-04-30T23:34:26.831Z,68.30
2018-04-30T23:36:54.357Z,68.70
2018-04-30T23:39:21.974Z,69.20
2018-04-30T23:41:50.265Z,70.20
2018-04-30T23:44:18.740Z,70.70
2018-04-30T23:46:47.027Z,70.80
2018-04-30T23:49:15.313Z,71.20
2018-04-30T23:51:42.851Z,71.30
2018-04-30T23:54:10.374Z,72.10
2018-04-30T23:56:37.888Z,72.20
2018-04-30T23:59:05.394Z,72.60
